Terminal Aerodrome Forecast
Issued by NWS Shreveport, LA

Home | Current Version | Previous Version | Text Only | Print | Product List | Glossary On
Versions: 1 2 3 4 5 6 7 8 9 10 11 12 13 14 15 16 17 18 19 20
000
FTUS44 KSHV 281743
TAFLFK
TAF
KLFK 281743Z 2818/2918 17005KT P6SM FEW025 SCT035 BKN250
     FM282100 18007KT P6SM VCTS BKN035CB BKN250
     FM290300 15004KT P6SM SCT050 BKN100
     FM291200 18003KT 2SM BR BKN010 OVC020
     FM291500 20006KT P6SM BKN020 BKN050 OVC100=

USA.gov is the U.S. government's official web portal to all federal, state and local government web resources and services.